»·PEaware :: TWA5150 KDEN-KASE

TWA5150 :: KDEN-KASE

FLIGHT INFORMATION

Flight Status: Arrived
Operator:
Trans World Airlines
More flights by this operator :: More flights under this callsign
Pilot: Anonymous 17686 (17686)
Aircraft: LOCKHEED L-049/749/1049 CONSTELLATION
(CONI)
More flights by this aircraft type
Origin: KDEN Denver Intl
United States
Destination: KASE Aspen-Pitkin Co/Sardy
United States
More flights between these airports :: More routes between these airports
Route: +
File this flight plan on PilotEdge
Remarks:
Altitude:
(Current/Filed)
16,500ft
Speed:
(Current/Filed)
0kts
Departed: 08-May-18 08:31 PM
Arrived: 08-May-18 09:13 PM
Distance/Time
Traveled:
109nm/0:42
Distance/Time
To Go:
Arrived

Flight Plot

Page will automatically refresh every two minutes.

Flight plan parsing failed; only flown route is shown


Map Options




Map Legend


Flown Route
Filed Route
Departure Airport
Arrival Airport
Navaid (VOR, NDB)
Fix

Horizontal Profiles

Position Reports

Time Latitude Longitude Heading Altitude Ground
Speed
08-May-18 20:20 39.853413 -104.676667 1 5441ft 0kts
08-May-18 20:21 39.853035 -104.676675 0 5441ft 0kts
08-May-18 20:22 39.853036 -104.676675 0 5441ft 0kts
08-May-18 20:23 39.853038 -104.676675 0 5441ft 0kts
08-May-18 20:24 39.853039 -104.676675 0 5441ft 0kts
08-May-18 20:25 39.853041 -104.676675 0 5441ft 0kts
08-May-18 20:26 39.853041 -104.677760 246 5441ft 19kts
08-May-18 20:27 39.852823 -104.684032 198 5441ft 8kts
08-May-18 20:28 39.847424 -104.684053 177 5441ft 16kts
08-May-18 20:29 39.842794 -104.684169 183 5441ft 16kts
08-May-18 20:30 39.841727 -104.684174 175 5441ft 0kts
08-May-18 20:31 39.840771 -104.699847 268 5442ft 118kts
08-May-18 20:32 39.843649 -104.744908 272 6723ft 143kts
08-May-18 20:33 39.849491 -104.802185 270 7621ft 162kts
08-May-18 20:34 39.852153 -104.860379 272 8427ft 157kts
08-May-18 20:35 39.849645 -104.917388 250 9624ft 153kts
08-May-18 20:36 39.827132 -104.968136 243 10569ft 169kts
08-May-18 20:37 39.806770 -105.021423 249 11518ft 161kts
08-May-18 20:38 39.789349 -105.074954 254 12222ft 160kts
08-May-18 20:39 39.773366 -105.129123 253 12931ft 159kts
08-May-18 20:40 39.757171 -105.181951 254 13826ft 154kts
08-May-18 20:41 39.740717 -105.233026 253 14428ft 153kts
08-May-18 20:42 39.724486 -105.284297 254 14973ft 154kts
08-May-18 20:43 39.707255 -105.336681 254 15440ft 157kts
08-May-18 20:44 39.690194 -105.388881 254 15899ft 156kts
08-May-18 20:45 39.670809 -105.439522 248 16366ft 158kts
08-May-18 20:46 39.649447 -105.489422 249 16738ft 159kts
08-May-18 20:47 39.626992 -105.541472 248 16911ft 167kts
08-May-18 20:48 39.610617 -105.600384 258 17130ft 179kts
08-May-18 20:49 39.595217 -105.663025 260 17041ft 185kts
08-May-18 20:50 39.578422 -105.727641 257 16938ft 194kts
08-May-18 20:51 39.561620 -105.795170 257 16909ft 198kts
08-May-18 20:52 39.544648 -105.864044 257 16817ft 201kts
08-May-18 20:53 39.528222 -105.933142 259 16801ft 199kts
08-May-18 20:54 39.513207 -106.000563 262 16938ft 192kts
08-May-18 20:55 39.499033 -106.068341 260 16879ft 196kts
08-May-18 20:56 39.485036 -106.137058 261 16856ft 197kts
08-May-18 20:57 39.472047 -106.206090 262 16830ft 197kts
08-May-18 20:58 39.460741 -106.274288 264 16922ft 194kts
08-May-18 20:59 39.450194 -106.342937 264 16944ft 194kts
08-May-18 21:00 39.439968 -106.412065 264 16919ft 196kts
08-May-18 21:01 39.430057 -106.479702 265 16810ft 202kts
08-May-18 21:02 39.425595 -106.554836 264 15926ft 220kts
08-May-18 21:03 39.415560 -106.634593 257 15127ft 226kts
08-May-18 21:04 39.393785 -106.709557 253 14806ft 211kts
08-May-18 21:05 39.373662 -106.780836 253 14051ft 217kts
08-May-18 21:06 39.353126 -106.855061 253 13251ft 221kts
08-May-18 21:07 39.322558 -106.917710 205 12692ft 185kts
08-May-18 21:08 39.282041 -106.894235 136 10909ft 158kts
08-May-18 21:09 39.249095 -106.860908 147 9822ft 148kts
08-May-18 21:10 39.214173 -106.841191 155 9142ft 131kts
08-May-18 21:11 39.197273 -106.850545 308 8565ft 120kts
08-May-18 21:12 39.221087 -106.867931 342 7746ft 68kts
08-May-18 21:13 39.225702 -106.869270 70 7746ft 0kts

Navigation Log

Ident Type
Flight plan parsing failed, navigation log unavailable